sensor_id;sensor_type;location;lat;lon;timestamp;pressure;altitude;pressure_sealevel;temperature;humidity
59315;BME280;46521;50.160;20.802;2023-11-18T00:08:18;99625.42;;;2.45;86.55
59315;BME280;46521;50.160;20.802;2023-11-18T00:18:19;99635.13;;;2.43;86.35
59315;BME280;46521;50.160;20.802;2023-11-18T00:28:20;99640.34;;;2.43;86.94
59315;BME280;46521;50.160;20.802;2023-11-18T00:38:22;99652.46;;;2.44;86.89
59315;BME280;46521;50.160;20.802;2023-11-18T00:48:23;99661.97;;;2.45;86.35
59315;BME280;46521;50.160;20.802;2023-11-18T00:58:25;99663.61;;;2.46;87.04
59315;BME280;46521;50.160;20.802;2023-11-18T01:08:27;99669.34;;;2.51;86.81
59315;BME280;46521;50.160;20.802;2023-11-18T01:18:28;99662.56;;;2.48;86.85
59315;BME280;46521;50.160;20.802;2023-11-18T01:28:31;99660.06;;;2.47;86.74
59315;BME280;46521;50.160;20.802;2023-11-18T01:38:35;99665.28;;;2.47;86.64
59315;BME280;46521;50.160;20.802;2023-11-18T01:48:37;99663.14;;;2.52;86.73
59315;BME280;46521;50.160;20.802;2023-11-18T01:58:39;99672.42;;;2.56;86.51
59315;BME280;46521;50.160;20.802;2023-11-18T02:08:42;99673.36;;;2.55;86.66
59315;BME280;46521;50.160;20.802;2023-11-18T02:18:45;99683.58;;;2.58;86.90
59315;BME280;46521;50.160;20.802;2023-11-18T02:28:48;99684.78;;;2.65;86.75
59315;BME280;46521;50.160;20.802;2023-11-18T02:38:50;99690.01;;;2.65;86.40
59315;BME280;46521;50.160;20.802;2023-11-18T02:48:56;99691.91;;;2.63;86.48
59315;BME280;46521;50.160;20.802;2023-11-18T02:58:58;99694.75;;;2.60;86.76
59315;BME280;46521;50.160;20.802;2023-11-18T03:09:00;99697.37;;;2.60;86.49
59315;BME280;46521;50.160;20.802;2023-11-18T03:19:01;99707.58;;;2.63;86.57
59315;BME280;46521;50.160;20.802;2023-11-18T03:29:07;99711.02;;;2.64;86.87
59315;BME280;46521;50.160;20.802;2023-11-18T03:39:13;99719.30;;;2.58;86.95
59315;BME280;46521;50.160;20.802;2023-11-18T03:49:15;99722.73;;;2.58;87.17
59315;BME280;46521;50.160;20.802;2023-11-18T03:59:16;99736.30;;;2.63;86.78
59315;BME280;46521;50.160;20.802;2023-11-18T04:09:18;99729.88;;;2.67;86.44
59315;BME280;46521;50.160;20.802;2023-11-18T04:19:19;99736.78;;;2.68;86.72
59315;BME280;46521;50.160;20.802;2023-11-18T04:29:21;99749.72;;;2.70;86.79
59315;BME280;46521;50.160;20.802;2023-11-18T04:39:24;99751.98;;;2.75;86.89
59315;BME280;46521;50.160;20.802;2023-11-18T04:49:26;99747.00;;;2.72;86.39
59315;BME280;46521;50.160;20.802;2023-11-18T04:59:27;99753.16;;;2.70;86.72
59315;BME280;46521;50.160;20.802;2023-11-18T05:09:31;99751.37;;;2.71;86.22
59315;BME280;46521;50.160;20.802;2023-11-18T05:19:33;99757.56;;;2.70;86.20
59315;BME280;46521;50.160;20.802;2023-11-18T05:29:34;99763.83;;;2.67;86.24
59315;BME280;46521;50.160;20.802;2023-11-18T05:39:36;99772.48;;;2.68;86.02
59315;BME280;46521;50.160;20.802;2023-11-18T05:49:44;99782.59;;;2.73;86.49
59315;BME280;46521;50.160;20.802;2023-11-18T05:59:45;99795.66;;;2.73;86.68
59315;BME280;46521;50.160;20.802;2023-11-18T06:09:49;99802.89;;;2.69;86.30
59315;BME280;46521;50.160;20.802;2023-11-18T06:19:52;99803.48;;;2.73;86.83
59315;BME280;46521;50.160;20.802;2023-11-18T06:29:53;99813.22;;;2.70;86.46
59315;BME280;46521;50.160;20.802;2023-11-18T06:39:58;99814.38;;;2.66;86.22
59315;BME280;46521;50.160;20.802;2023-11-18T06:49:59;99821.62;;;2.63;86.34
59315;BME280;46521;50.160;20.802;2023-11-18T07:00:03;99825.42;;;2.59;86.80
59315;BME280;46521;50.160;20.802;2023-11-18T07:10:09;99827.30;;;2.57;86.86
59315;BME280;46521;50.160;20.802;2023-11-18T07:20:14;99837.29;;;2.63;86.18
59315;BME280;46521;50.160;20.802;2023-11-18T07:30:16;99845.61;;;2.68;86.52
59315;BME280;46521;50.160;20.802;2023-11-18T07:40:19;99857.43;;;2.85;86.44
59315;BME280;46521;50.160;20.802;2023-11-18T07:50:29;99870.55;;;2.96;86.36
59315;BME280;46521;50.160;20.802;2023-11-18T08:00:30;99872.20;;;2.97;86.09
59315;BME280;46521;50.160;20.802;2023-11-18T08:10:32;99883.14;;;3.02;86.35
59315;BME280;46521;50.160;20.802;2023-11-18T08:20:34;99903.70;;;3.07;85.67
59315;BME280;46521;50.160;20.802;2023-11-18T08:30:39;99904.04;;;3.02;85.86
59315;BME280;46521;50.160;20.802;2023-11-18T08:40:40;99920.87;;;2.87;86.15
59315;BME280;46521;50.160;20.802;2023-11-18T08:50:43;99920.25;;;2.59;85.73
59315;BME280;46521;50.160;20.802;2023-11-18T09:00:47;99942.22;;;2.44;85.94
59315;BME280;46521;50.160;20.802;2023-11-18T09:10:51;99947.66;;;2.41;86.13
59315;BME280;46521;50.160;20.802;2023-11-18T09:20:56;99958.59;;;2.46;85.56
59315;BME280;46521;50.160;20.802;2023-11-18T09:31:01;99970.90;;;2.57;85.41
59315;BME280;46521;50.160;20.802;2023-11-18T09:41:05;99972.69;;;2.56;85.02
59315;BME280;46521;50.160;20.802;2023-11-18T09:51:20;99991.14;;;2.66;84.91
59315;BME280;46521;50.160;20.802;2023-11-18T10:01:26;99996.08;;;2.58;84.53
59315;BME280;46521;50.160;20.802;2023-11-18T10:11:29;100000.77;;;2.65;84.82
59315;BME280;46521;50.160;20.802;2023-11-18T10:21:36;99997.44;;;2.63;84.70
59315;BME280;46521;50.160;20.802;2023-11-18T10:31:41;100003.59;;;2.62;84.55
59315;BME280;46521;50.160;20.802;2023-11-18T10:41:46;100016.50;;;2.77;84.08
59315;BME280;46521;50.160;20.802;2023-11-18T10:51:51;100006.48;;;2.70;84.00
59315;BME280;46521;50.160;20.802;2023-11-18T11:01:52;100032.31;;;2.62;83.75
59315;BME280;46521;50.160;20.802;2023-11-18T11:11:59;100050.41;;;2.52;83.74
59315;BME280;46521;50.160;20.802;2023-11-18T11:22:09;100051.44;;;2.50;84.02
59315;BME280;46521;50.160;20.802;2023-11-18T11:32:29;100066.69;;;2.56;83.25
59315;BME280;46521;50.160;20.802;2023-11-18T11:42:40;100072.52;;;2.60;83.16
59315;BME280;46521;50.160;20.802;2023-11-18T11:52:47;100089.67;;;2.51;82.84
59315;BME280;46521;50.160;20.802;2023-11-18T12:02:52;100104.27;;;2.53;83.24
59315;BME280;46521;50.160;20.802;2023-11-18T12:13:10;100100.64;;;2.43;82.80
59315;BME280;46521;50.160;20.802;2023-11-18T12:23:17;100116.83;;;2.36;82.45
59315;BME280;46521;50.160;20.802;2023-11-18T12:33:19;100136.44;;;2.28;82.76
59315;BME280;46521;50.160;20.802;2023-11-18T12:43:49;100146.23;;;2.12;82.77
59315;BME280;46521;50.160;20.802;2023-11-18T12:53:59;100156.27;;;2.18;82.91
59315;BME280;46521;50.160;20.802;2023-11-18T13:04:00;100168.61;;;2.29;82.64
59315;BME280;46521;50.160;20.802;2023-11-18T13:14:03;100176.09;;;2.21;82.78
59315;BME280;46521;50.160;20.802;2023-11-18T13:24:04;100208.27;;;2.21;82.24
59315;BME280;46521;50.160;20.802;2023-11-18T13:34:06;100216.30;;;2.18;81.94
59315;BME280;46521;50.160;20.802;2023-11-18T13:44:08;100237.70;;;2.23;82.14
59315;BME280;46521;50.160;20.802;2023-11-18T13:54:10;100252.06;;;2.16;81.86
59315;BME280;46521;50.160;20.802;2023-11-18T14:04:13;100254.34;;;2.08;81.67
59315;BME280;46521;50.160;20.802;2023-11-18T14:14:14;100269.80;;;2.11;82.08
59315;BME280;46521;50.160;20.802;2023-11-18T14:24:16;100294.60;;;2.04;81.65
59315;BME280;46521;50.160;20.802;2023-11-18T14:34:18;100305.33;;;1.99;81.90
59315;BME280;46521;50.160;20.802;2023-11-18T14:44:20;100308.64;;;1.88;82.00
59315;BME280;46521;50.160;20.802;2023-11-18T14:54:21;100316.84;;;1.82;81.79
59315;BME280;46521;50.160;20.802;2023-11-18T15:04:23;100337.51;;;1.71;81.68
59315;BME280;46521;50.160;20.802;2023-11-18T15:14:25;100328.95;;;1.69;82.08
59315;BME280;46521;50.160;20.802;2023-11-18T15:24:27;100338.46;;;1.70;81.34
59315;BME280;46521;50.160;20.802;2023-11-18T15:34:28;100353.16;;;1.71;81.63
59315;BME280;46521;50.160;20.802;2023-11-18T15:44:30;100367.70;;;1.60;81.71
59315;BME280;46521;50.160;20.802;2023-11-18T15:54:34;100377.77;;;1.52;81.83
59315;BME280;46521;50.160;20.802;2023-11-18T16:04:35;100393.95;;;1.57;81.58
59315;BME280;46521;50.160;20.802;2023-11-18T16:14:37;100390.03;;;1.50;81.95
59315;BME280;46521;50.160;20.802;2023-11-18T16:24:39;100403.16;;;1.49;81.75
59315;BME280;46521;50.160;20.802;2023-11-18T16:34:41;100410.05;;;1.50;81.60
59315;BME280;46521;50.160;20.802;2023-11-18T16:44:42;100414.91;;;1.56;81.35
59315;BME280;46521;50.160;20.802;2023-11-18T16:54:43;100423.47;;;1.58;81.25
59315;BME280;46521;50.160;20.802;2023-11-18T17:04:45;100431.56;;;1.53;81.76
59315;BME280;46521;50.160;20.802;2023-11-18T17:14:48;100435.67;;;1.57;81.64
59315;BME280;46521;50.160;20.802;2023-11-18T17:24:49;100444.69;;;1.52;81.97
59315;BME280;46521;50.160;20.802;2023-11-18T17:34:51;100431.38;;;1.56;81.52
59315;BME280;46521;50.160;20.802;2023-11-18T17:44:52;100442.34;;;1.47;81.76
59315;BME280;46521;50.160;20.802;2023-11-18T17:54:54;100433.79;;;1.45;81.60
59315;BME280;46521;50.160;20.802;2023-11-18T18:04:57;100445.19;;;1.58;81.95
59315;BME280;46521;50.160;20.802;2023-11-18T18:14:58;100454.28;;;1.51;81.68
59315;BME280;46521;50.160;20.802;2023-11-18T18:25:00;100453.69;;;1.32;81.37
59315;BME280;46521;50.160;20.802;2023-11-18T18:35:02;100428.46;;;1.32;81.25
59315;BME280;46521;50.160;20.802;2023-11-18T18:45:04;100424.73;;;1.36;81.65
59315;BME280;46521;50.160;20.802;2023-11-18T18:55:06;100435.06;;;1.38;81.63
59315;BME280;46521;50.160;20.802;2023-11-18T19:05:08;100448.01;;;1.39;82.07
59315;BME280;46521;50.160;20.802;2023-11-18T19:15:10;100432.55;;;1.36;81.86
59315;BME280;46521;50.160;20.802;2023-11-18T19:25:17;100431.63;;;1.37;81.73
59315;BME280;46521;50.160;20.802;2023-11-18T19:35:19;100439.00;;;1.45;81.50
59315;BME280;46521;50.160;20.802;2023-11-18T19:45:21;100430.44;;;1.43;81.86
59315;BME280;46521;50.160;20.802;2023-11-18T19:55:22;100417.20;;;1.32;81.55
59315;BME280;46521;50.160;20.802;2023-11-18T20:05:24;100411.61;;;1.38;81.57
59315;BME280;46521;50.160;20.802;2023-11-18T20:15:26;100403.34;;;1.46;81.88
59315;BME280;46521;50.160;20.802;2023-11-18T20:25:30;100402.52;;;1.59;81.58
59315;BME280;46521;50.160;20.802;2023-11-18T20:35:32;100414.27;;;1.67;80.95
59315;BME280;46521;50.160;20.802;2023-11-18T20:45:33;100412.67;;;1.64;81.12
59315;BME280;46521;50.160;20.802;2023-11-18T20:55:35;100402.88;;;1.53;81.46
59315;BME280;46521;50.160;20.802;2023-11-18T21:05:36;100390.70;;;1.54;81.96
59315;BME280;46521;50.160;20.802;2023-11-18T21:15:38;100376.63;;;1.56;81.62
59315;BME280;46521;50.160;20.802;2023-11-18T21:25:42;100377.03;;;1.65;81.02
59315;BME280;46521;50.160;20.802;2023-11-18T21:35:43;100355.02;;;1.83;81.17
59315;BME280;46521;50.160;20.802;2023-11-18T21:45:45;100369.27;;;1.92;81.06
59315;BME280;46521;50.160;20.802;2023-11-18T21:55:46;100378.50;;;1.97;81.33
59315;BME280;46521;50.160;20.802;2023-11-18T22:05:55;100383.91;;;1.94;80.61
59315;BME280;46521;50.160;20.802;2023-11-18T22:15:56;100370.19;;;1.91;80.77
59315;BME280;46521;50.160;20.802;2023-11-18T22:25:58;100385.84;;;1.91;81.35
59315;BME280;46521;50.160;20.802;2023-11-18T22:36:00;100359.28;;;1.98;81.50
59315;BME280;46521;50.160;20.802;2023-11-18T22:46:02;100340.26;;;2.11;81.12
59315;BME280;46521;50.160;20.802;2023-11-18T22:56:06;100332.67;;;2.21;81.09
59315;BME280;46521;50.160;20.802;2023-11-18T23:06:08;100355.72;;;2.14;80.61
59315;BME280;46521;50.160;20.802;2023-11-18T23:16:10;100323.49;;;2.01;80.46
59315;BME280;46521;50.160;20.802;2023-11-18T23:26:14;100318.88;;;1.91;80.73
59315;BME280;46521;50.160;20.802;2023-11-18T23:36:16;100324.19;;;1.90;81.06
59315;BME280;46521;50.160;20.802;2023-11-18T23:46:18;100300.81;;;1.88;80.81
59315;BME280;46521;50.160;20.802;2023-11-18T23:56:20;100302.47;;;1.89;80.36
